Time;durP1;ratioP1;P1;durP2;ratioP2;P2;SDS_P1;SDS_P2;PMS_P1;PMS_P2;Temp;Humidity;BMP_temperature;BMP_pressure;BME280_temperature;BME280_humidity;BME280_pressure;Samples;Min_cycle;Max_cycle;Signal;HPM_P1;HPM_P2
2021/03/30 00:01:39;;;;;;;1.87;1.10;;;7.90;98.00;;;;;;5072758;28;20480;-70
2021/03/30 00:04:06;;;;;;;3.33;2.07;;;7.90;98.00;;;;;;5072666;28;20482;-70
2021/03/30 00:06:32;;;;;;;1.20;0.97;;;7.80;98.00;;;;;;5070203;28;20862;-69
2021/03/30 00:09:00;;;;;;;2.27;1.20;;;7.80;98.00;;;;;;5072610;28;20503;-69
2021/03/30 00:11:27;;;;;;;1.20;1.10;;;7.60;98.00;;;;;;5070159;28;20533;-69
2021/03/30 00:13:53;;;;;;;1.30;1.20;;;7.80;98.00;;;;;;5072073;28;20503;-69
2021/03/30 00:16:20;;;;;;;3.20;1.33;;;7.80;98.00;;;;;;5069117;28;20464;-69
2021/03/30 00:18:46;;;;;;;1.60;1.20;;;7.80;98.00;;;;;;5072464;28;20459;-69
2021/03/30 00:21:13;;;;;;;1.30;1.00;;;7.60;98.00;;;;;;5070118;28;20496;-69
2021/03/30 00:23:40;;;;;;;1.37;1.10;;;7.60;98.00;;;;;;5072394;28;20510;-70
2021/03/30 00:26:07;;;;;;;2.03;1.50;;;7.80;98.00;;;;;;5069986;28;20471;-69
2021/03/30 00:28:34;;;;;;;1.70;1.30;;;7.80;98.00;;;;;;5072239;28;20511;-69
2021/03/30 00:31:00;;;;;;;1.20;0.90;;;7.70;98.00;;;;;;5068821;28;20612;-69
2021/03/30 00:33:27;;;;;;;1.70;1.30;;;7.50;98.00;;;;;;5070874;28;20464;-69
2021/03/30 00:35:53;;;;;;;1.20;1.00;;;7.20;98.00;;;;;;5069970;28;20504;-69
2021/03/30 00:38:20;;;;;;;1.27;1.10;;;7.00;98.00;;;;;;5071856;28;20518;-69
2021/03/30 00:40:46;;;;;;;1.20;1.00;;;6.90;98.00;;;;;;5070223;28;20460;-70
2021/03/30 00:43:14;;;;;;;1.30;1.10;;;6.80;98.00;;;;;;5071783;28;20466;-68
2021/03/30 00:45:40;;;;;;;1.90;1.53;;;6.80;98.00;;;;;;5068573;28;20475;-70
2021/03/30 00:48:08;;;;;;;1.40;1.20;;;7.00;98.00;;;;;;5071612;28;20455;-69
2021/03/30 00:50:35;;;;;;;1.30;1.10;;;7.10;98.00;;;;;;5069641;28;20950;-69
2021/03/30 00:53:06;;;;;;;1.57;1.17;;;7.30;98.00;;;;;;5071544;28;20531;-69
2021/03/30 00:55:33;;;;;;;1.20;1.00;;;7.30;98.00;;;;;;5069716;28;20464;-70
2021/03/30 00:57:59;;;;;;;1.20;1.10;;;7.00;98.00;;;;;;5071737;28;20463;-69
2021/03/30 01:00:27;;;;;;;2.37;1.73;;;6.80;98.00;;;;;;5068526;28;20451;-70
2021/03/30 01:02:53;;;;;;;1.40;1.30;;;6.70;98.00;;;;;;5071610;28;20463;-69
2021/03/30 01:05:20;;;;;;;1.40;1.17;;;6.90;98.00;;;;;;5068350;28;20459;-69
2021/03/30 01:08:08;;;;;;;1.93;1.53;;;6.90;98.00;;;;;;5070194;28;20464;-69
2021/03/30 01:10:45;;;;;;;1.20;1.00;;;6.80;98.00;;;;;;5069406;28;20864;-69
2021/03/30 01:13:34;;;;;;;1.43;1.20;;;6.70;98.00;;;;;;5071164;28;20648;-70
2021/03/30 01:16:05;;;;;;;1.50;1.23;;;6.70;98.00;;;;;;5069403;28;20469;-69
2021/03/30 01:18:36;;;;;;;3.13;1.53;;;6.80;98.00;;;;;;5053214;28;20868;-70
2021/03/30 01:21:50;;;;;;;1.20;1.07;;;6.80;98.00;;;;;;5069363;28;20458;-69
2021/03/30 01:24:22;;;;;;;2.40;1.60;;;7.00;98.00;;;;;;5069684;28;21007;-69
2021/03/30 01:26:54;;;;;;;1.20;1.00;;;6.70;98.00;;;;;;5070581;28;21015;-69
2021/03/30 01:29:45;;;;;;;1.20;0.93;;;6.60;98.00;;;;;;5069010;28;20456;-69
2021/03/30 01:32:15;;;;;;;1.20;1.10;;;6.50;98.00;;;;;;5071007;28;20526;-69
2021/03/30 01:34:45;;;;;;;1.27;1.23;;;6.40;98.00;;;;;;5069003;28;20973;-70
2021/03/30 01:37:14;;;;;;;1.40;1.20;;;6.60;98.00;;;;;;5070853;28;20543;-69
2021/03/30 01:39:42;;;;;;;1.20;1.10;;;6.70;98.00;;;;;;5068948;28;20471;-69
2021/03/30 01:42:11;;;;;;;1.20;1.10;;;6.80;98.00;;;;;;5070979;28;20445;-69
2021/03/30 01:44:41;;;;;;;1.50;1.10;;;6.70;98.00;;;;;;5069168;28;20824;-68
2021/03/30 01:47:08;;;;;;;1.20;1.10;;;6.60;98.00;;;;;;5070732;28;20470;-68
2021/03/30 01:49:36;;;;;;;1.20;1.10;;;6.50;98.00;;;;;;5068927;28;20485;-69
2021/03/30 01:52:03;;;;;;;1.20;1.00;;;6.40;98.00;;;;;;5070899;28;20859;-69
2021/03/30 01:54:31;;;;;;;1.30;1.30;;;6.30;98.00;;;;;;5068869;28;20455;-69
2021/03/30 01:56:59;;;;;;;1.30;1.20;;;6.30;98.00;;;;;;5070891;28;20465;-68
2021/03/30 01:59:27;;;;;;;3.40;1.50;;;6.30;98.00;;;;;;5068889;28;20470;-69
2021/03/30 02:01:55;;;;;;;1.30;1.30;;;6.20;98.00;;;;;;5070711;28;20457;-69
2021/03/30 02:04:24;;;;;;;1.50;1.27;;;6.10;98.00;;;;;;5069537;28;20485;-69
2021/03/30 02:06:51;;;;;;;2.50;1.30;;;6.10;98.00;;;;;;5070800;28;20955;-69
2021/03/30 02:09:24;;;;;;;2.37;1.53;;;6.20;98.00;;;;;;5070681;28;20963;-69
2021/03/30 02:11:55;;;;;;;1.40;1.23;;;6.30;98.00;;;;;;5070644;28;20495;-69
2021/03/30 02:14:23;;;;;;;1.80;1.50;;;6.30;98.00;;;;;;5069611;28;21020;-68
2021/03/30 02:16:56;;;;;;;1.33;1.10;;;6.20;98.00;;;;;;5070842;28;20462;-68
2021/03/30 02:19:39;;;;;;;2.73;1.50;;;6.00;98.00;;;;;;5069652;28;20453;-69
2021/03/30 02:22:10;;;;;;;3.37;1.53;;;5.80;98.00;;;;;;5070489;28;20461;-68
2021/03/30 02:24:51;;;;;;;1.30;1.10;;;5.70;98.00;;;;;;5068450;28;21049;-69
2021/03/30 02:27:18;;;;;;;1.20;1.00;;;5.90;98.00;;;;;;5070530;28;20881;-70
2021/03/30 02:29:51;;;;;;;1.50;1.00;;;5.70;98.00;;;;;;5068687;28;20821;-69
2021/03/30 02:32:19;;;;;;;2.00;1.27;;;5.70;98.00;;;;;;5066701;28;20705;-69
2021/03/30 02:34:48;;;;;;;1.20;0.90;;;5.80;98.00;;;;;;5068687;28;20457;-70
2021/03/30 02:37:18;;;;;;;1.20;1.00;;;5.90;98.00;;;;;;5072293;28;20457;-69
2021/03/30 02:39:45;;;;;;;1.20;1.00;;;5.90;98.00;;;;;;5072506;28;20488;-68
2021/03/30 02:42:14;;;;;;;1.20;1.00;;;5.80;98.00;;;;;;5074645;28;20457;-69
2021/03/30 02:44:41;;;;;;;2.80;1.73;;;5.70;98.00;;;;;;5073068;28;20966;-70
2021/03/30 02:47:10;;;;;;;1.30;1.00;;;5.70;98.00;;;;;;5073335;28;20467;-68
2021/03/30 02:49:37;;;;;;;2.37;1.10;;;5.60;98.00;;;;;;5073475;28;20461;-68
2021/03/30 02:52:05;;;;;;;1.20;1.07;;;5.80;98.00;;;;;;5074087;28;20480;-69
2021/03/30 02:54:32;;;;;;;1.40;1.33;;;5.70;98.00;;;;;;5072290;28;20456;-68
2021/03/30 02:56:59;;;;;;;1.30;1.20;;;5.50;98.00;;;;;;5073979;28;20497;-69
2021/03/30 02:59:28;;;;;;;1.20;1.00;;;5.60;98.00;;;;;;5072780;28;20511;-69
2021/03/30 03:01:56;;;;;;;1.20;1.10;;;5.60;98.00;;;;;;5074206;28;20447;-68
2021/03/30 03:04:25;;;;;;;1.57;1.30;;;5.50;98.00;;;;;;5073960;28;20492;-68
2021/03/30 03:06:52;;;;;;;1.37;1.10;;;5.50;98.00;;;;;;5072174;28;20457;-69
2021/03/30 03:09:20;;;;;;;1.30;1.10;;;5.30;98.00;;;;;;5073833;28;20457;-69
2021/03/30 03:11:48;;;;;;;1.20;1.00;;;5.30;98.00;;;;;;5071419;28;20488;-70
2021/03/30 03:14:17;;;;;;;1.60;1.50;;;5.30;98.00;;;;;;5073736;28;20457;-68
2021/03/30 03:16:44;;;;;;;1.30;1.20;;;5.60;98.00;;;;;;5071668;28;20460;-69
2021/03/30 03:19:13;;;;;;;1.20;0.90;;;5.60;98.00;;;;;;5072437;28;20767;-68
2021/03/30 03:21:40;;;;;;;1.30;1.20;;;5.50;98.00;;;;;;5071431;28;20967;-69
2021/03/30 03:24:10;;;;;;;1.20;1.00;;;5.50;98.00;;;;;;5073454;28;20460;-70
2021/03/30 03:26:38;;;;;;;1.30;1.10;;;5.30;98.00;;;;;;5071583;28;20515;-68
2021/03/30 03:29:15;;;;;;;1.20;1.00;;;5.30;98.00;;;;;;5073450;28;20471;-68
2021/03/30 03:31:42;;;;;;;1.40;1.27;;;5.20;98.00;;;;;;5070076;28;20472;-68
2021/03/30 03:34:09;;;;;;;1.20;1.00;;;5.10;98.00;;;;;;5073276;28;20459;-69
2021/03/30 03:36:37;;;;;;;1.30;1.13;;;5.10;98.00;;;;;;5071370;28;20974;-68
2021/03/30 03:39:07;;;;;;;1.40;1.20;;;5.10;98.00;;;;;;5073163;28;20550;-69
2021/03/30 03:41:34;;;;;;;1.20;1.00;;;5.20;98.00;;;;;;5070117;28;20456;-68
2021/03/30 03:44:03;;;;;;;1.20;1.10;;;5.30;98.00;;;;;;5073288;28;20516;-70
2021/03/30 03:46:30;;;;;;;1.20;1.00;;;5.30;98.00;;;;;;5071577;28;20473;-69
2021/03/30 03:48:57;;;;;;;1.40;1.33;;;5.20;98.00;;;;;;5072118;28;20872;-70
2021/03/30 03:51:28;;;;;;;1.30;1.10;;;5.10;98.00;;;;;;5071298;28;20460;-68
2021/03/30 03:53:57;;;;;;;3.93;1.60;;;5.10;98.00;;;;;;5072931;28;20544;-68
2021/03/30 03:56:28;;;;;;;1.20;1.00;;;5.30;98.00;;;;;;5071095;28;20500;-69
2021/03/30 03:59:02;;;;;;;1.20;1.00;;;5.60;98.00;;;;;;5073042;28;20457;-68
2021/03/30 04:01:37;;;;;;;1.20;1.00;;;5.30;98.00;;;;;;5071019;28;20488;-69
2021/03/30 04:04:11;;;;;;;1.20;0.90;;;5.10;98.00;;;;;;5071758;28;20459;-69
2021/03/30 04:06:44;;;;;;;1.40;1.17;;;5.00;98.00;;;;;;5071013;28;20482;-68
2021/03/30 04:09:12;;;;;;;1.40;1.27;;;5.10;98.00;;;;;;5072713;28;20457;-69
2021/03/30 04:11:40;;;;;;;1.20;1.00;;;5.10;98.00;;;;;;5070654;28;20475;-68
2021/03/30 04:14:08;;;;;;;1.20;1.00;;;4.90;98.00;;;;;;5072453;28;20712;-70
2021/03/30 04:16:35;;;;;;;1.20;1.00;;;4.90;98.00;;;;;;5070751;28;20462;-70
2021/03/30 04:19:02;;;;;;;1.30;1.20;;;4.80;98.00;;;;;;5072568;28;20460;-69
2021/03/30 04:21:31;;;;;;;1.20;1.00;;;4.90;98.00;;;;;;5070387;28;20963;-68
2021/03/30 04:23:58;;;;;;;1.50;1.37;;;4.80;98.00;;;;;;5072718;28;20459;-69
2021/03/30 04:26:24;;;;;;;1.30;1.10;;;4.90;98.00;;;;;;5070397;28;20457;-70
2021/03/30 04:28:51;;;;;;;1.97;1.40;;;5.00;98.00;;;;;;5072541;28;20455;-69
2021/03/30 04:31:18;;;;;;;1.30;1.20;;;5.10;98.00;;;;;;5070272;28;20870;-70
2021/03/30 04:33:45;;;;;;;1.20;1.00;;;5.00;98.00;;;;;;5072172;28;21022;-68
2021/03/30 04:36:12;;;;;;;1.67;1.30;;;4.80;98.00;;;;;;5070225;28;20457;-68
2021/03/30 04:38:38;;;;;;;1.20;1.00;;;4.70;98.00;;;;;;5072108;28;20455;-71
2021/03/30 04:41:06;;;;;;;1.97;1.30;;;4.70;98.00;;;;;;5070190;28;20463;-68
2021/03/30 04:43:34;;;;;;;1.30;1.10;;;4.60;98.00;;;;;;5072055;28;20472;-68
2021/03/30 04:46:00;;;;;;;1.70;1.43;;;4.60;98.00;;;;;;5069956;28;20512;-69
2021/03/30 04:48:27;;;;;;;1.70;1.10;;;4.70;98.00;;;;;;5072001;28;20981;-69
2021/03/30 04:50:55;;;;;;;1.50;1.30;;;4.60;98.00;;;;;;5070046;28;20488;-69
2021/03/30 04:53:21;;;;;;;1.50;1.50;;;4.60;98.00;;;;;;5071961;28;20527;-69
2021/03/30 04:55:48;;;;;;;1.30;1.10;;;4.70;98.00;;;;;;5069884;28;20755;-68
2021/03/30 04:58:14;;;;;;;1.30;1.10;;;4.60;98.00;;;;;;5071652;28;20517;-69
2021/03/30 05:00:41;;;;;;;2.13;1.30;;;4.50;98.00;;;;;;5069513;28;20460;-68
2021/03/30 05:03:08;;;;;;;1.50;1.40;;;4.40;98.00;;;;;;5071632;28;20460;-69
2021/03/30 05:05:34;;;;;;;1.20;1.10;;;4.20;98.00;;;;;;5069603;28;20484;-69
2021/03/30 05:08:02;;;;;;;1.70;1.37;;;4.20;98.00;;;;;;5071604;28;20945;-68
2021/03/30 05:10:28;;;;;;;1.30;1.10;;;4.10;98.00;;;;;;5068438;28;20829;-70
2021/03/30 05:12:55;;;;;;;1.20;1.07;;;4.30;98.00;;;;;;5071320;28;20491;-68
2021/03/30 05:15:21;;;;;;;4.60;1.53;;;4.40;98.00;;;;;;5069983;28;20493;-68
2021/03/30 05:17:48;;;;;;;1.83;1.20;;;4.50;98.00;;;;;;5071825;28;20452;-68
2021/03/30 05:20:15;;;;;;;1.40;1.20;;;4.30;98.00;;;;;;5069623;28;20944;-68
2021/03/30 05:22:42;;;;;;;2.80;1.87;;;4.30;98.00;;;;;;5070172;28;20525;-69
2021/03/30 05:25:10;;;;;;;1.20;1.10;;;4.20;98.00;;;;;;5069469;28;20494;-68
2021/03/30 05:27:37;;;;;;;1.20;1.10;;;4.10;98.00;;;;;;5071282;28;20470;-69
2021/03/30 05:30:06;;;;;;;1.20;1.20;;;4.00;98.00;;;;;;5069158;28;20471;-69
2021/03/30 05:32:32;;;;;;;1.70;1.53;;;4.00;98.00;;;;;;5070920;28;20854;-68
2021/03/30 05:34:59;;;;;;;1.50;1.30;;;4.10;98.00;;;;;;5069073;28;20466;-69
2021/03/30 05:37:26;;;;;;;1.30;1.13;;;4.20;98.00;;;;;;5071114;28;20522;-68
2021/03/30 05:39:52;;;;;;;1.43;1.43;;;4.40;98.00;;;;;;5068939;28;20457;-69
2021/03/30 05:42:20;;;;;;;1.20;1.10;;;4.40;98.00;;;;;;5070944;28;20818;-68
2021/03/30 05:44:47;;;;;;;1.40;1.23;;;4.60;98.00;;;;;;5069033;28;20494;-68
2021/03/30 05:47:16;;;;;;;1.20;1.00;;;4.70;98.00;;;;;;5070760;28;20475;-68
2021/03/30 05:49:44;;;;;;;1.20;1.00;;;4.80;98.00;;;;;;5068571;28;20457;-66
2021/03/30 05:52:17;;;;;;;1.20;1.10;;;4.80;98.00;;;;;;5070629;28;20556;-67
2021/03/30 05:54:46;;;;;;;1.20;1.07;;;4.60;98.00;;;;;;5069645;28;20832;-69
2021/03/30 05:57:15;;;;;;;2.53;1.37;;;4.40;98.00;;;;;;5070621;28;20463;-68
2021/03/30 05:59:45;;;;;;;1.60;1.30;;;4.50;98.00;;;;;;5070411;28;20492;-68
2021/03/30 06:02:21;;;;;;;1.73;1.70;;;4.60;98.00;;;;;;5070640;28;20461;-68
2021/03/30 06:04:48;;;;;;;3.00;1.73;;;4.70;98.00;;;;;;5068327;28;20519;-67
2021/03/30 06:07:15;;;;;;;1.20;1.10;;;4.80;98.00;;;;;;5070691;28;20491;-68
2021/03/30 06:09:44;;;;;;;1.20;1.00;;;4.90;98.00;;;;;;5069122;28;20459;-68
2021/03/30 06:12:15;;;;;;;1.70;1.63;;;5.00;98.00;;;;;;5069198;28;20519;-68
2021/03/30 06:14:44;;;;;;;1.70;1.63;;;5.10;98.00;;;;;;5070650;28;20463;-67
2021/03/30 06:17:13;;;;;;;2.47;1.93;;;5.00;98.00;;;;;;5069652;28;20462;-68
2021/03/30 06:19:59;;;;;;;2.57;2.00;;;5.00;98.00;;;;;;5070639;28;20560;-69
2021/03/30 06:22:27;;;;;;;1.20;1.03;;;4.90;98.00;;;;;;5070488;28;20463;-69
2021/03/30 06:24:55;;;;;;;1.50;1.10;;;5.00;98.00;;;;;;5068350;28;20454;-68
2021/03/30 06:27:29;;;;;;;2.03;1.40;;;5.20;98.00;;;;;;5070715;28;20460;-67
2021/03/30 06:29:59;;;;;;;1.20;1.00;;;5.40;98.00;;;;;;5067238;28;20459;-68
2021/03/30 06:32:27;;;;;;;1.20;1.10;;;5.40;98.00;;;;;;5069488;28;20515;-67
2021/03/30 06:34:58;;;;;;;1.50;1.47;;;5.50;98.00;;;;;;5068212;28;20454;-67
2021/03/30 06:37:33;;;;;;;1.20;1.17;;;5.50;98.00;;;;;;5070447;28;20460;-68
2021/03/30 06:40:02;;;;;;;1.60;1.30;;;5.60;98.00;;;;;;5067965;28;20462;-68
2021/03/30 06:42:35;;;;;;;1.60;1.40;;;5.70;98.00;;;;;;5070375;28;20524;-67
2021/03/30 06:45:04;;;;;;;2.23;1.50;;;5.80;98.00;;;;;;5068150;28;20515;-68
2021/03/30 06:47:31;;;;;;;1.67;1.30;;;5.90;98.00;;;;;;5070157;28;21063;-68
2021/03/30 06:50:01;;;;;;;2.40;1.40;;;6.00;98.00;;;;;;5068162;28;20461;-68
2021/03/30 06:52:28;;;;;;;1.20;1.00;;;6.10;98.00;;;;;;5070202;28;20482;-68
2021/03/30 06:54:58;;;;;;;2.13;1.47;;;6.10;98.00;;;;;;5068087;28;20817;-68
2021/03/30 06:57:36;;;;;;;1.20;1.10;;;6.20;98.00;;;;;;5068937;28;20823;-70
2021/03/30 07:00:10;;;;;;;1.50;1.40;;;6.30;98.00;;;;;;5067981;28;20528;-68
2021/03/30 07:02:40;;;;;;;1.20;1.10;;;6.30;98.00;;;;;;5070207;28;20469;-68
2021/03/30 07:05:09;;;;;;;1.47;1.43;;;6.50;98.00;;;;;;5066620;28;20562;-68
2021/03/30 07:07:37;;;;;;;2.00;1.50;;;6.50;98.00;;;;;;5068779;28;20477;-68
2021/03/30 07:10:04;;;;;;;1.97;1.17;;;6.60;98.00;;;;;;5067863;28;20527;-67
2021/03/30 07:12:32;;;;;;;1.30;1.10;;;6.70;98.00;;;;;;5070009;28;21034;-69
2021/03/30 07:14:58;;;;;;;2.23;1.77;;;6.70;98.00;;;;;;5067968;28;20506;-70
2021/03/30 07:17:31;;;;;;;1.63;1.47;;;6.80;98.00;;;;;;5069923;28;20514;-69
2021/03/30 07:20:04;;;;;;;1.50;1.30;;;6.80;98.00;;;;;;5067653;28;20510;-69
2021/03/30 07:22:34;;;;;;;1.60;1.20;;;6.90;98.00;;;;;;5069882;28;20512;-71
2021/03/30 07:25:03;;;;;;;1.83;1.47;;;7.00;98.00;;;;;;5070546;28;20454;-70
2021/03/30 07:27:35;;;;;;;1.37;1.10;;;7.20;98.00;;;;;;5073513;28;20460;-68
2021/03/30 07:30:03;;;;;;;1.30;1.23;;;7.50;98.00;;;;;;5071319;28;20963;-69
2021/03/30 07:32:44;;;;;;;1.43;1.37;;;7.70;98.00;;;;;;5073331;28;20525;-68
2021/03/30 07:35:15;;;;;;;2.30;1.57;;;7.90;98.00;;;;;;5071030;28;20456;-68
2021/03/30 07:37:56;;;;;;;2.27;1.50;;;8.00;98.00;;;;;;5073523;28;20864;-68
2021/03/30 07:40:24;;;;;;;2.27;2.07;;;8.20;98.00;;;;;;5071152;28;20459;-68
2021/03/30 07:42:52;;;;;;;1.20;1.10;;;8.30;98.00;;;;;;5073273;28;20459;-70
2021/03/30 07:45:22;;;;;;;1.80;1.47;;;8.60;98.00;;;;;;5071400;28;20492;-69
2021/03/30 07:47:52;;;;;;;1.73;1.20;;;8.70;98.00;;;;;;5073346;28;20964;-68
2021/03/30 07:50:23;;;;;;;1.70;1.40;;;8.90;98.00;;;;;;5070049;28;20491;-67
2021/03/30 07:52:50;;;;;;;1.20;1.00;;;9.20;98.00;;;;;;5072588;28;20483;-70
2021/03/30 07:55:23;;;;;;;1.60;1.47;;;9.40;98.00;;;;;;5052783;28;21049;-70
2021/03/30 07:58:10;;;;;;;1.20;1.00;;;9.50;98.00;;;;;;5072227;28;20468;-71
2021/03/30 08:00:53;;;;;;;1.40;1.23;;;9.70;97.40;;;;;;5070327;28;20461;-66
2021/03/30 08:03:28;;;;;;;2.37;1.50;;;10.00;97.60;;;;;;5072361;28;20805;-67
2021/03/30 08:06:31;;;;;;;1.40;1.37;;;10.10;97.10;;;;;;5069029;28;20523;-68
2021/03/30 08:08:59;;;;;;;1.20;1.00;;;10.30;96.10;;;;;;5069508;28;20512;-69
2021/03/30 08:11:46;;;;;;;1.33;1.33;;;10.40;95.30;;;;;;5070012;28;20491;-68
2021/03/30 08:14:39;;;;;;;1.23;1.07;;;10.60;96.00;;;;;;5071392;28;20519;-67
2021/03/30 08:17:09;;;;;;;1.30;1.20;;;10.90;96.00;;;;;;5069777;28;20902;-67
2021/03/30 08:19:51;;;;;;;1.77;1.27;;;11.10;95.60;;;;;;5072002;28;20496;-67
2021/03/30 08:22:18;;;;;;;1.90;1.53;;;11.30;93.70;;;;;;5069875;28;20485;-68
2021/03/30 08:24:55;;;;;;;2.13;1.43;;;11.40;92.40;;;;;;5071801;28;20809;-69
2021/03/30 08:27:40;;;;;;;2.23;1.30;;;11.50;92.30;;;;;;5069997;28;20466;-67
2021/03/30 08:30:42;;;;;;;1.23;1.10;;;11.80;91.90;;;;;;5069580;28;20467;-68
2021/03/30 08:33:09;;;;;;;1.20;1.00;;;11.90;89.60;;;;;;5071564;28;20486;-66
2021/03/30 08:35:39;;;;;;;1.30;1.13;;;11.90;89.00;;;;;;5069475;28;20910;-66
2021/03/30 08:38:06;;;;;;;1.20;1.00;;;12.10;90.20;;;;;;5072352;28;20452;-67
2021/03/30 08:40:45;;;;;;;2.40;1.20;;;12.20;89.50;;;;;;5068927;28;20541;-67
2021/03/30 08:43:23;;;;;;;1.20;1.00;;;12.50;88.40;;;;;;5072076;28;20461;-67
2021/03/30 08:46:07;;;;;;;1.50;1.33;;;12.80;89.00;;;;;;5070040;28;20457;-66
2021/03/30 08:48:35;;;;;;;2.00;1.63;;;13.00;88.00;;;;;;5071948;28;20527;-66
2021/03/30 08:51:05;;;;;;;1.43;1.27;;;13.10;86.90;;;;;;5070039;28;20500;-67
2021/03/30 08:53:33;;;;;;;2.70;1.40;;;13.30;86.70;;;;;;5071793;28;20484;-66
2021/03/30 08:56:04;;;;;;;1.20;1.10;;;13.50;83.80;;;;;;5070056;28;20515;-66
2021/03/30 08:58:32;;;;;;;1.60;1.23;;;13.60;83.00;;;;;;5072111;28;20485;-66
2021/03/30 09:01:06;;;;;;;1.80;1.40;;;13.80;83.10;;;;;;5070060;28;20474;-66
2021/03/30 09:03:32;;;;;;;2.37;1.33;;;14.00;82.60;;;;;;5071902;28;20461;-66
2021/03/30 09:05:59;;;;;;;2.00;1.27;;;14.20;83.10;;;;;;5070349;28;20855;-66
2021/03/30 09:08:40;;;;;;;1.67;1.33;;;14.50;83.20;;;;;;5071635;28;20585;-66
2021/03/30 09:11:17;;;;;;;1.70;1.30;;;14.70;81.30;;;;;;5068532;28;20460;-66
2021/03/30 09:14:00;;;;;;;1.20;1.10;;;14.80;81.40;;;;;;5071637;28;20486;-66
2021/03/30 09:16:28;;;;;;;2.23;1.90;;;15.00;80.70;;;;;;5068341;28;20824;-66
2021/03/30 09:19:29;;;;;;;1.97;1.10;;;15.20;81.70;;;;;;5071579;28;20609;-66
2021/03/30 09:22:02;;;;;;;1.40;1.33;;;15.50;81.40;;;;;;5069557;28;20456;-67
2021/03/30 09:27:21;;;;;;;1.30;1.20;;;15.80;79.50;;;;;;5069568;28;20440;-67
2021/03/30 09:29:52;;;;;;;1.67;1.57;;;16.00;79.30;;;;;;5071259;28;20456;-66
2021/03/30 09:32:19;;;;;;;4.90;2.00;;;16.20;78.90;;;;;;5069076;28;20572;-66
2021/03/30 09:34:45;;;;;;;1.40;1.20;;;16.50;79.80;;;;;;5071238;28;20492;-67
2021/03/30 09:37:11;;;;;;;1.57;1.43;;;16.70;77.20;;;;;;5069064;28;20480;-66
2021/03/30 09:39:40;;;;;;;1.70;1.33;;;16.80;78.20;;;;;;5071030;28;20530;-66
2021/03/30 09:42:08;;;;;;;5.60;2.10;;;17.00;79.10;;;;;;5068974;28;20468;-66
2021/03/30 09:44:36;;;;;;;2.17;1.63;;;17.30;76.70;;;;;;5070935;28;20969;-66
2021/03/30 09:47:03;;;;;;;1.97;1.57;;;17.40;76.40;;;;;;5068319;28;20468;-66
2021/03/30 09:49:29;;;;;;;3.30;1.90;;;17.60;76.60;;;;;;5070735;28;20449;-66
2021/03/30 09:51:59;;;;;;;2.47;1.27;;;17.80;76.40;;;;;;5068925;28;20973;-66
2021/03/30 09:54:29;;;;;;;1.90;1.33;;;18.00;75.50;;;;;;5071303;28;20460;-66
2021/03/30 09:56:59;;;;;;;2.30;1.50;;;18.30;73.70;;;;;;5068738;28;20499;-66
2021/03/30 09:59:26;;;;;;;2.23;1.50;;;18.40;73.30;;;;;;5071406;28;20645;-66
2021/03/30 10:01:53;;;;;;;2.30;1.73;;;18.60;73.10;;;;;;5068875;28;20468;-66
2021/03/30 10:04:25;;;;;;;1.60;1.57;;;18.90;73.90;;;;;;5071042;28;20499;-66
2021/03/30 10:06:52;;;;;;;1.80;1.77;;;19.10;73.00;;;;;;5068662;28;20479;-66
2021/03/30 10:09:19;;;;;;;1.40;1.27;;;19.40;73.00;;;;;;5071300;28;20461;-66
2021/03/30 10:11:47;;;;;;;2.70;1.70;;;19.70;72.50;;;;;;5068959;28;20456;-66
2021/03/30 10:14:27;;;;;;;4.80;2.40;;;19.90;70.70;;;;;;5070961;28;20488;-66
2021/03/30 10:16:55;;;;;;;1.50;1.37;;;20.10;69.30;;;;;;5068489;28;20611;-66
2021/03/30 10:19:23;;;;;;;3.07;1.80;;;20.30;68.60;;;;;;5071464;28;20966;-66
2021/03/30 10:21:55;;;;;;;2.37;1.53;;;20.60;67.50;;;;;;5068649;28;20864;-66
2021/03/30 10:24:22;;;;;;;2.13;1.30;;;20.70;68.00;;;;;;5071478;28;20449;-66
2021/03/30 10:27:03;;;;;;;2.47;1.70;;;21.00;67.00;;;;;;5068575;28;20895;-66
2021/03/30 10:29:38;;;;;;;3.33;2.00;;;21.10;66.20;;;;;;5069921;28;20550;-66
2021/03/30 10:32:13;;;;;;;2.80;1.63;;;21.30;68.60;;;;;;5080811;28;20456;-67
2021/03/30 10:34:40;;;;;;;2.10;1.70;;;21.40;64.90;;;;;;5090852;28;20512;-67
2021/03/30 10:37:09;;;;;;;2.50;1.70;;;21.50;64.50;;;;;;5088403;28;20456;-66
2021/03/30 10:39:38;;;;;;;1.57;1.40;;;21.70;62.80;;;;;;5089634;28;20459;-67
2021/03/30 10:42:07;;;;;;;1.83;1.60;;;21.90;63.30;;;;;;5088293;28;20456;-69
2021/03/30 10:44:37;;;;;;;1.37;1.30;;;22.10;61.60;;;;;;5090708;28;20476;-67
2021/03/30 10:47:17;;;;;;;1.40;1.30;;;22.30;60.20;;;;;;5088071;28;20466;-66
2021/03/30 10:49:45;;;;;;;2.20;1.60;;;22.50;59.40;;;;;;5090624;28;20479;-65
2021/03/30 10:52:18;;;;;;;2.13;1.50;;;22.80;58.00;;;;;;5087837;28;20489;-67
2021/03/30 10:54:46;;;;;;;2.03;1.63;;;22.90;57.50;;;;;;5090820;28;20448;-66
2021/03/30 10:57:14;;;;;;;2.93;1.60;;;23.10;56.40;;;;;;5088228;28;20460;-66
2021/03/30 10:59:43;;;;;;;3.50;1.70;;;23.30;58.30;;;;;;5094500;28;20460;-66
2021/03/30 11:02:10;;;;;;;1.67;1.40;;;23.40;57.60;;;;;;5091501;28;20459;-66
2021/03/30 11:04:37;;;;;;;1.83;1.60;;;23.60;56.00;;;;;;5094518;28;20456;-67
2021/03/30 11:07:04;;;;;;;1.40;1.20;;;23.80;54.70;;;;;;5091576;28;20459;-66
2021/03/30 11:09:31;;;;;;;1.97;1.50;;;23.90;53.80;;;;;;5094252;28;20481;-66
2021/03/30 11:11:59;;;;;;;1.53;1.40;;;24.10;54.40;;;;;;5091445;28;20484;-67
2021/03/30 11:14:26;;;;;;;2.27;1.40;;;24.20;54.20;;;;;;5094050;28;20488;-66
2021/03/30 11:16:54;;;;;;;1.80;1.80;;;24.40;53.40;;;;;;5091713;28;20447;-67
2021/03/30 11:19:21;;;;;;;1.63;1.43;;;24.60;52.80;;;;;;5094367;28;20812;-67
2021/03/30 11:21:48;;;;;;;1.40;1.40;;;24.90;52.50;;;;;;5091617;28;20467;-66
2021/03/30 11:24:18;;;;;;;1.40;1.30;;;25.00;50.60;;;;;;5094183;28;20478;-66
2021/03/30 11:26:50;;;;;;;1.60;1.33;;;25.20;50.90;;;;;;5091696;28;20828;-65
2021/03/30 11:29:22;;;;;;;1.67;1.33;;;25.30;49.20;;;;;;5094148;28;20470;-65
2021/03/30 11:34:40;;;;;;;2.03;1.47;;;25.50;48.90;;;;;;5075824;28;20460;-66
2021/03/30 11:37:18;;;;;;;2.27;1.50;;;25.60;49.00;;;;;;5091642;28;20486;-66
2021/03/30 11:39:45;;;;;;;2.27;1.50;;;25.60;49.80;;;;;;5094077;28;20487;-67
2021/03/30 11:42:12;;;;;;;1.53;1.17;;;25.50;48.50;;;;;;5091162;28;20452;-67
2021/03/30 11:44:38;;;;;;;1.50;1.43;;;25.80;49.00;;;;;;5093562;28;20459;-68
2021/03/30 11:47:05;;;;;;;1.60;1.37;;;26.10;49.80;;;;;;5091002;28;20460;-68
2021/03/30 11:49:32;;;;;;;3.30;2.00;;;26.20;47.90;;;;;;5093430;28;20466;-67
2021/03/30 11:52:00;;;;;;;1.53;1.50;;;26.40;48.80;;;;;;5090930;28;20448;-67
2021/03/30 11:54:27;;;;;;;2.23;1.30;;;26.50;47.60;;;;;;5093205;28;20483;-67
2021/03/30 11:56:53;;;;;;;1.60;1.40;;;26.70;45.70;;;;;;5091151;28;20875;-67
2021/03/30 11:59:20;;;;;;;1.80;1.40;;;26.70;45.30;;;;;;5092935;28;20464;-67
2021/03/30 12:01:47;;;;;;;1.70;1.40;;;26.70;46.40;;;;;;5090783;28;20491;-66
2021/03/30 12:04:14;;;;;;;5.23;2.57;;;26.70;44.80;;;;;;5073309;28;20938;-67
2021/03/30 12:06:40;;;;;;;1.60;1.50;;;26.70;46.10;;;;;;5070224;28;20464;-67
2021/03/30 12:09:08;;;;;;;1.50;1.30;;;26.50;46.00;;;;;;5072126;28;20453;-67
2021/03/30 12:11:35;;;;;;;1.87;1.47;;;26.40;46.60;;;;;;5070219;28;20465;-67
2021/03/30 12:14:01;;;;;;;1.83;1.43;;;26.20;47.40;;;;;;5072730;28;20480;-69
2021/03/30 12:16:28;;;;;;;1.60;1.50;;;26.20;48.00;;;;;;5070655;28;20465;-68
2021/03/30 12:18:56;;;;;;;2.27;1.50;;;26.10;46.20;;;;;;5072928;28;20974;-67
2021/03/30 12:21:23;;;;;;;1.80;1.50;;;26.00;47.20;;;;;;5070377;28;20456;-67
2021/03/30 12:23:50;;;;;;;1.50;1.30;;;26.00;47.60;;;;;;5072572;28;20456;-67
2021/03/30 12:26:17;;;;;;;1.47;1.33;;;25.90;47.60;;;;;;5070265;28;20481;-67
2021/03/30 12:28:44;;;;;;;1.73;1.57;;;25.90;46.90;;;;;;5072689;28;20477;-67
2021/03/30 12:31:11;;;;;;;1.70;1.40;;;25.70;46.40;;;;;;5070304;28;20460;-67
2021/03/30 12:33:38;;;;;;;2.83;1.70;;;25.70;45.30;;;;;;5072234;28;20484;-67
2021/03/30 12:36:05;;;;;;;1.93;1.40;;;25.60;45.70;;;;;;5069589;28;20457;-67
2021/03/30 12:38:32;;;;;;;1.83;1.30;;;25.60;47.40;;;;;;5072290;28;20961;-67
2021/03/30 12:40:58;;;;;;;2.53;2.07;;;25.70;46.60;;;;;;5070041;28;20853;-67
2021/03/30 12:43:29;;;;;;;2.53;1.63;;;25.80;46.00;;;;;;5072000;28;20460;-67
2021/03/30 12:45:55;;;;;;;3.17;2.00;;;25.80;44.70;;;;;;5069579;28;20970;-67
2021/03/30 12:48:22;;;;;;;1.83;1.53;;;25.80;43.90;;;;;;5072225;28;20583;-67
2021/03/30 12:50:48;;;;;;;1.70;1.50;;;25.80;44.30;;;;;;5069571;28;21234;-67
2021/03/30 12:53:16;;;;;;;3.60;1.57;;;25.80;43.70;;;;;;5071530;28;20492;-67
2021/03/30 12:55:42;;;;;;;2.40;1.50;;;25.80;43.20;;;;;;5069456;28;20809;-67
2021/03/30 12:58:12;;;;;;;2.50;1.60;;;25.70;44.20;;;;;;5071901;28;20461;-67
2021/03/30 13:00:39;;;;;;;2.67;1.60;;;25.80;44.10;;;;;;5069220;28;20866;-67
2021/03/30 13:03:06;;;;;;;1.90;1.60;;;25.60;44.40;;;;;;5071337;28;20958;-67
2021/03/30 13:05:32;;;;;;;1.50;1.50;;;25.70;43.90;;;;;;5069150;28;20460;-67
2021/03/30 13:07:59;;;;;;;2.03;1.40;;;25.50;44.50;;;;;;5072024;28;20459;-67
2021/03/30 13:10:26;;;;;;;1.73;1.30;;;25.40;44.30;;;;;;5071335;28;20860;-66
2021/03/30 13:12:52;;;;;;;2.07;1.60;;;25.20;43.90;;;;;;5070653;28;20487;-66